Time;durP1;ratioP1;P1;durP2;ratioP2;P2;SDS_P1;SDS_P2;PMS_P1;PMS_P2;Temp;Humidity;BMP_temperature;BMP_pressure;BME280_temperature;BME280_humidity;BME280_pressure;Samples;Min_cycle;Max_cycle;Signal;HPM_P1;HPM_P2
2022/09/24 00:00:52;;;;;;;26.50;15.70;;;;;;;8.33;92.22;100627.25;5066388;28;20029;-67
2022/09/24 00:03:23;;;;;;;27.38;15.43;;;;;;;8.31;92.49;100636.31;5044262;28;20039;-66
2022/09/24 00:05:50;;;;;;;28.45;17.35;;;;;;;8.27;92.46;100625.00;5064806;28;20102;-68
2022/09/24 00:08:16;;;;;;;27.80;16.73;;;;;;;8.20;92.42;100620.19;5064795;28;20108;-68
2022/09/24 00:10:45;;;;;;;29.77;17.52;;;;;;;8.23;92.70;100623.53;5064903;28;20039;-68
2022/09/24 00:13:14;;;;;;;28.50;17.80;;;;;;;8.15;92.30;100619.66;5064477;28;20023;-67
2022/09/24 00:15:46;;;;;;;29.52;18.63;;;;;;;8.16;92.39;100630.25;5062596;28;20047;-68
2022/09/24 00:18:13;;;;;;;32.95;20.38;;;;;;;8.13;91.99;100622.44;5061274;28;20020;-68
2022/09/24 00:20:39;;;;;;;33.78;18.42;;;;;;;8.05;91.95;100622.16;5066748;28;20032;-67
2022/09/24 00:23:06;;;;;;;32.55;19.20;;;;;;;8.07;92.17;100630.94;5065522;28;20085;-67
2022/09/24 00:28:16;;;;;;;27.85;18.63;;;;;;;8.01;91.56;100630.50;5060585;28;20166;-67
2022/09/24 00:30:43;;;;;;;28.98;18.42;;;;;;;7.97;91.42;100632.53;5064222;28;20032;-66
2022/09/24 00:33:09;;;;;;;27.80;17.88;;;;;;;7.88;91.60;100621.69;5063776;28;20047;-67
2022/09/24 00:35:36;;;;;;;25.83;16.50;;;;;;;7.87;91.84;100628.00;5064098;28;20081;-67
2022/09/24 00:38:04;;;;;;;25.90;17.17;;;;;;;7.82;91.88;100625.66;5064792;28;20020;-68
2022/09/24 00:40:32;;;;;;;26.13;17.35;;;;;;;7.79;92.16;100623.19;5062569;28;20028;-67
2022/09/24 00:42:58;;;;;;;23.40;16.27;;;;;;;7.72;92.22;100611.25;5063920;28;20029;-67
2022/09/24 00:45:25;;;;;;;27.95;17.33;;;;;;;7.74;92.20;100621.81;5065327;28;20016;-68
2022/09/24 00:47:52;;;;;;;27.08;18.70;;;;;;;7.67;91.88;100610.72;5050738;28;20384;-68
2022/09/24 00:50:30;;;;;;;27.60;18.10;;;;;;;7.70;91.67;100621.19;5064101;28;20090;-67
2022/09/24 00:53:08;;;;;;;27.80;17.65;;;;;;;7.61;91.82;100611.13;5045594;28;20025;-67
2022/09/24 00:55:36;;;;;;;25.67;16.98;;;;;;;7.59;91.59;100604.22;5063654;28;20028;-68
2022/09/24 00:58:04;;;;;;;26.40;16.67;;;;;;;7.60;92.16;100613.91;5060559;28;20113;-66
2022/09/24 01:00:31;;;;;;;30.60;17.88;;;;;;;7.48;92.24;100598.78;5068387;28;20024;-67
2022/09/24 01:03:04;;;;;;;28.80;19.20;;;;;;;7.54;93.06;100611.72;5083452;28;20040;-66
2022/09/24 01:05:30;;;;;;;31.05;20.20;;;;;;;7.53;92.74;100608.19;5077845;28;20103;-67
2022/09/24 01:07:56;;;;;;;26.38;16.98;;;;;;;7.49;93.12;100605.84;5064165;28;20605;-66
2022/09/24 01:10:48;;;;;;;26.15;17.80;;;;;;;7.47;93.13;100602.41;5043100;28;20395;-65
2022/09/24 01:13:23;;;;;;;28.05;18.15;;;;;;;7.46;93.18;100608.72;5066143;28;20016;-66
2022/09/24 01:15:58;;;;;;;29.50;17.83;;;;;;;7.44;93.21;100600.81;5068582;28;20024;-66
2022/09/24 01:18:45;;;;;;;29.95;17.17;;;;;;;7.43;93.33;100609.78;5043499;28;20025;-66
2022/09/24 01:21:25;;;;;;;24.65;17.05;;;;;;;7.41;92.75;100603.69;5063211;28;20036;-66
2022/09/24 01:24:31;;;;;;;26.25;17.73;;;;;;;7.37;93.04;100590.69;5063388;28;20028;-67
2022/09/24 01:27:00;;;;;;;;;;;;;;;7.37;93.08;100602.22;5012280;28;20686;-67
2022/09/24 01:29:32;;;;;;;25.15;16.85;;;;;;;7.34;93.34;100598.88;5067415;28;20056;-67
2022/09/24 01:32:05;;;;;;;26.33;16.50;;;;;;;7.25;92.55;100581.72;5063887;28;20846;-67
2022/09/24 01:34:46;;;;;;;24.90;16.42;;;;;;;7.28;92.64;100599.34;5087041;28;20403;-67
2022/09/24 01:37:16;;;;;;;25.10;16.90;;;;;;;7.21;92.27;100588.25;5087115;28;20166;-68
2022/09/24 01:39:45;;;;;;;26.65;16.73;;;;;;;7.24;92.94;100589.81;5081929;28;20033;-68
2022/09/24 01:42:13;;;;;;;27.60;16.77;;;;;;;7.23;92.66;100597.00;5066940;28;20024;-67
2022/09/24 01:44:42;;;;;;;26.98;18.30;;;;;;;7.17;92.55;100591.22;5062520;28;20021;-67
2022/09/24 01:47:13;;;;;;;26.33;17.27;;;;;;;7.18;92.50;100598.25;5067263;28;20547;-65
2022/09/24 01:49:38;;;;;;;26.02;17.08;;;;;;;7.15;92.46;100593.16;5090733;28;20028;-66
2022/09/24 01:52:09;;;;;;;23.00;15.85;;;;;;;7.02;92.71;100577.13;5049256;28;20017;-65
2022/09/24 01:54:40;;;;;;;23.80;15.95;;;;;;;7.10;92.29;100595.28;5064861;28;20051;-65
2022/09/24 01:57:17;;;;;;;25.13;16.00;;;;;;;7.06;92.38;100589.28;5066282;28;20040;-65
2022/09/24 01:59:54;;;;;;;23.88;15.73;;;;;;;7.07;92.90;100588.34;5066348;28;20035;-65
2022/09/24 02:02:51;;;;;;;22.05;15.80;;;;;;;7.04;93.43;100593.91;5065051;28;20056;-65
2022/09/24 02:05:38;;;;;;;22.80;15.15;;;;;;;7.00;92.80;100589.75;5058265;28;20949;-64
2022/09/24 02:08:10;;;;;;;22.50;15.88;;;;;;;6.97;93.00;100589.94;5079957;28;20631;-64
2022/09/24 02:11:05;;;;;;;24.95;15.55;;;;;;;6.98;92.82;100597.84;5086343;28;20081;-66
2022/09/24 02:13:38;;;;;;;23.33;15.82;;;;;;;6.98;92.89;100597.84;5050376;28;20039;-66
2022/09/24 02:16:07;;;;;;;20.58;14.57;;;;;;;6.96;93.21;100594.41;5047753;28;20394;-66
2022/09/24 02:18:37;;;;;;;23.15;15.65;;;;;;;6.89;92.53;100585.13;5067462;28;20028;-67
2022/09/24 02:21:08;;;;;;;22.23;15.07;;;;;;;6.91;93.11;100596.53;5060376;28;20104;-67
2022/09/24 02:23:37;;;;;;;21.92;15.07;;;;;;;6.89;92.77;100585.13;5066394;28;20040;-67
2022/09/24 02:26:04;;;;;;;22.15;15.10;;;;;;;6.85;93.36;100586.31;5078283;28;20035;-68
2022/09/24 02:28:31;;;;;;;21.52;13.98;;;;;;;6.86;93.36;100585.34;5066307;28;20024;-67
2022/09/24 02:31:06;;;;;;;23.83;15.50;;;;;;;6.86;92.76;100588.00;5057460;28;20427;-67
2022/09/24 02:36:18;;;;;;;22.35;15.75;;;;;;;6.84;92.97;100589.06;5058657;28;20573;-67
2022/09/24 02:38:45;;;;;;;22.02;13.90;;;;;;;6.74;93.68;100572.84;5072170;28;20140;-67
2022/09/24 02:41:12;;;;;;;22.38;14.75;;;;;;;6.78;93.87;100585.00;5065789;28;20491;-67
2022/09/24 02:43:39;;;;;;;22.42;15.38;;;;;;;6.74;93.56;100580.84;5063805;28;20024;-66
2022/09/24 02:46:08;;;;;;;21.23;13.45;;;;;;;6.72;92.86;100574.78;5065800;28;20033;-67
2022/09/24 02:48:35;;;;;;;25.45;14.73;;;;;;;6.76;92.09;100591.41;5045670;28;20134;-67
2022/09/24 02:51:03;;;;;;;19.90;13.98;;;;;;;6.66;92.26;100566.31;5077047;28;20031;-67
2022/09/24 02:53:29;;;;;;;22.17;14.77;;;;;;;6.61;92.35;100571.97;5085800;28;20024;-67
2022/09/24 02:55:54;;;;;;;21.75;14.20;;;;;;;6.70;92.83;100582.00;5085822;28;20031;-67
2022/09/24 02:58:20;;;;;;;22.58;14.68;;;;;;;6.68;93.84;100589.25;5078216;28;20055;-67
2022/09/24 03:00:45;;;;;;;20.58;13.77;;;;;;;6.66;92.95;100579.66;5058428;28;20039;-67
2022/09/24 03:03:11;;;;;;;20.50;14.13;;;;;;;6.63;92.66;100577.19;5042179;28;20097;-67
2022/09/24 03:05:36;;;;;;;20.25;14.50;;;;;;;6.66;92.44;100588.50;5081680;28;20032;-67
2022/09/24 03:08:02;;;;;;;20.67;14.38;;;;;;;6.60;92.98;100574.72;5082789;28;20581;-67
2022/09/24 03:10:27;;;;;;;24.60;15.02;;;;;;;6.61;93.18;100577.28;5066467;28;20016;-67
2022/09/24 03:12:53;;;;;;;24.10;14.35;;;;;;;6.57;93.44;100574.94;5046893;28;20480;-67
2022/09/24 03:15:18;;;;;;;21.23;14.98;;;;;;;6.55;93.45;100579.53;5061831;28;20852;-67
2022/09/24 03:17:44;;;;;;;21.73;13.95;;;;;;;6.57;93.49;100574.94;5047333;28;20040;-67
2022/09/24 03:20:09;;;;;;;21.77;14.38;;;;;;;6.56;93.11;100581.22;5058840;28;20051;-67
2022/09/24 03:22:35;;;;;;;22.85;14.52;;;;;;;6.53;93.13;100574.31;5084468;28;20028;-67
2022/09/24 03:25:02;;;;;;;22.80;13.77;;;;;;;6.52;92.98;100572.56;5079882;28;20040;-65
2022/09/24 03:27:27;;;;;;;20.77;14.32;;;;;;;6.50;93.43;100579.84;5064334;28;20696;-65
2022/09/24 03:32:38;;;;;;;27.65;14.82;;;;;;;6.51;92.86;100575.34;5079775;28;20782;-65
2022/09/24 03:35:04;;;;;;;21.00;13.68;;;;;;;6.46;93.29;100569.50;5065647;28;20122;-64
2022/09/24 03:37:30;;;;;;;24.50;14.15;;;;;;;6.33;92.90;100547.28;5063055;28;20095;-65
2022/09/24 03:39:56;;;;;;;21.88;13.95;;;;;;;6.42;93.34;100568.00;5073099;28;20090;-65
2022/09/24 03:42:21;;;;;;;26.63;14.90;;;;;;;6.41;93.08;100575.13;5085582;28;20024;-65
2022/09/24 03:44:47;;;;;;;21.75;14.32;;;;;;;6.41;93.63;100576.91;5086103;28;20024;-65
2022/09/24 03:47:12;;;;;;;25.48;14.32;;;;;;;6.35;92.96;100575.53;5065351;28;20037;-65
2022/09/24 03:49:38;;;;;;;24.30;14.52;;;;;;;6.37;93.13;100576.28;5078530;28;20028;-65
2022/09/24 03:52:03;;;;;;;22.25;15.20;;;;;;;6.34;92.71;100572.97;5047413;28;20028;-65
2022/09/24 03:54:29;;;;;;;19.98;14.55;;;;;;;6.34;92.96;100579.16;5047231;28;20029;-65
2022/09/24 03:56:54;;;;;;;25.73;16.15;;;;;;;6.34;92.68;100579.16;5078101;28;20044;-65
2022/09/24 03:59:20;;;;;;;24.00;15.45;;;;;;;6.21;93.36;100566.75;5074714;28;20031;-65
2022/09/24 04:01:45;;;;;;;26.35;15.95;;;;;;;6.25;93.34;100569.09;5056037;28;20052;-65
2022/09/24 04:04:14;;;;;;;20.70;14.57;;;;;;;6.22;92.70;100563.09;5059526;28;20020;-65
2022/09/24 04:06:39;;;;;;;22.80;14.35;;;;;;;6.17;93.14;100565.25;5065018;28;20028;-65
2022/09/24 04:09:05;;;;;;;22.10;14.20;;;;;;;6.13;92.84;100563.75;5046999;28;20040;-65
2022/09/24 04:11:33;;;;;;;24.27;14.27;;;;;;;6.19;93.08;100579.31;5083409;28;20028;-65
2022/09/24 04:13:58;;;;;;;19.10;13.05;;;;;;;6.17;92.52;100575.88;5040169;28;20055;-65
2022/09/24 04:16:24;;;;;;;20.90;14.68;;;;;;;6.10;92.88;100569.25;5047153;28;20472;-67
2022/09/24 04:18:49;;;;;;;20.75;13.63;;;;;;;6.11;92.86;100568.28;5078163;28;20074;-65
2022/09/24 04:21:15;;;;;;;20.23;14.82;;;;;;;6.14;93.38;100568.97;5069497;28;20369;-67
2022/09/24 04:23:40;;;;;;;21.13;13.95;;;;;;;6.06;93.74;100552.63;5066389;28;20032;-68
2022/09/24 04:26:06;;;;;;;24.52;15.68;;;;;;;6.10;93.83;100566.59;5080231;28;20035;-68
2022/09/24 04:28:31;;;;;;;24.52;14.55;;;;;;;6.09;93.79;100560.41;5068555;28;20040;-67
2022/09/24 04:30:57;;;;;;;20.08;14.23;;;;;;;6.08;93.76;100565.84;5074458;28;20028;-67
2022/09/24 04:33:23;;;;;;;21.98;14.75;;;;;;;6.03;93.84;100557.31;5075892;28;20052;-66
2022/09/24 04:35:48;;;;;;;19.75;14.05;;;;;;;6.06;93.23;100565.94;5066899;28;20032;-65
2022/09/24 04:38:13;;;;;;;21.05;14.25;;;;;;;5.98;93.67;100549.63;5077830;28;20035;-65
2022/09/24 04:40:39;;;;;;;22.80;14.85;;;;;;;6.09;93.25;100565.75;5067807;28;20468;-65
2022/09/24 04:43:05;;;;;;;19.42;14.82;;;;;;;6.08;93.71;100569.38;5080778;28;20036;-65
2022/09/24 04:45:32;;;;;;;24.75;15.50;;;;;;;6.09;93.80;100567.53;5066747;28;20067;-66
2022/09/24 04:47:57;;;;;;;22.35;14.02;;;;;;;6.04;94.05;100559.88;5068405;28;20028;-65
2022/09/24 04:50:28;;;;;;;22.05;14.00;;;;;;;6.09;94.59;100564.88;5082291;28;20029;-66
2022/09/24 04:52:54;;;;;;;20.55;13.90;;;;;;;6.04;94.70;100562.53;5069041;28;20020;-67
2022/09/24 04:55:21;;;;;;;22.27;15.18;;;;;;;6.10;94.54;100570.09;5060655;28;20438;-65
2022/09/24 04:57:47;;;;;;;20.33;14.52;;;;;;;6.10;94.75;100570.09;5046051;28;20036;-65
2022/09/24 05:00:16;;;;;;;21.05;14.25;;;;;;;6.04;94.98;100543.03;5049336;28;20081;-65
2022/09/24 05:02:43;;;;;;;24.83;14.15;;;;;;;6.13;95.83;100564.56;5046651;28;20024;-67
2022/09/24 05:05:10;;;;;;;22.85;13.98;;;;;;;6.11;95.66;100553.19;5065001;28;20545;-68
2022/09/24 05:07:36;;;;;;;21.85;15.27;;;;;;;6.18;95.82;100558.94;5070389;28;20028;-68
2022/09/24 05:10:01;;;;;;;24.27;15.38;;;;;;;6.21;95.87;100561.41;5076834;28;20547;-67
2022/09/24 05:12:27;;;;;;;24.25;15.32;;;;;;;6.23;96.07;100563.00;5068803;28;20040;-67
2022/09/24 05:14:52;;;;;;;21.77;15.00;;;;;;;6.28;95.92;100563.56;5050602;28;20032;-67
2022/09/24 05:17:18;;;;;;;24.77;15.73;;;;;;;6.32;95.98;100558.91;5077947;28;20116;-67
2022/09/24 05:19:43;;;;;;;26.80;16.40;;;;;;;6.35;96.23;100548.88;5074923;28;20472;-67
2022/09/24 05:22:09;;;;;;;24.98;16.42;;;;;;;6.35;96.87;100543.56;5065959;28;20029;-66
2022/09/24 05:24:35;;;;;;;24.23;15.63;;;;;;;6.46;96.36;100551.69;5068300;28;20495;-66
2022/09/24 05:27:09;;;;;;;24.00;16.23;;;;;;;6.50;96.81;100557.66;5080151;28;20772;-66
2022/09/24 05:29:39;;;;;;;29.27;16.55;;;;;;;6.56;97.63;100547.47;5048836;28;20032;-67
2022/09/24 05:32:17;;;;;;;25.85;16.58;;;;;;;6.65;98.55;100556.63;5048978;28;20038;-67
2022/09/24 05:34:43;;;;;;;27.70;16.63;;;;;;;6.74;98.90;100558.69;5054259;28;20055;-67
2022/09/24 05:37:11;;;;;;;28.42;17.75;;;;;;;6.81;100.00;100557.31;5050037;28;20476;-68
2022/09/24 05:39:36;;;;;;;25.63;18.30;;;;;;;6.91;100.00;100551.19;5072972;28;20034;-66
2022/09/24 05:42:03;;;;;;;28.20;17.55;;;;;;;7.00;100.00;100553.25;5069225;28;20127;-67
2022/09/24 05:44:30;;;;;;;30.20;18.08;;;;;;;7.09;100.00;100545.56;5086704;28;20039;-66
2022/09/24 05:46:56;;;;;;;27.65;17.27;;;;;;;7.20;100.00;100554.53;5067669;28;20071;-66
2022/09/24 05:49:22;;;;;;;23.98;16.92;;;;;;;7.28;100.00;100546.00;5067001;28;20032;-67
2022/09/24 05:51:50;;;;;;;29.73;17.48;;;;;;;7.25;100.00;100530.19;5065227;28;20078;-64
2022/09/24 05:54:17;;;;;;;44.03;17.65;;;;;;;7.53;100.00;100569.94;5067994;28;20035;-65
2022/09/24 05:56:43;;;;;;;33.05;18.00;;;;;;;7.65;100.00;100571.75;5068623;28;20040;-64
2022/09/24 05:59:09;;;;;;;24.30;16.45;;;;;;;7.79;100.00;100572.47;5085010;28;20032;-64
2022/09/24 06:01:34;;;;;;;23.98;17.00;;;;;;;7.90;100.00;100571.69;5074299;28;20086;-64
2022/09/24 06:04:00;;;;;;;30.80;16.92;;;;;;;8.08;100.00;100568.53;5066626;28;20028;-67
2022/09/24 06:06:26;;;;;;;26.08;16.65;;;;;;;8.18;100.00;100561.53;5066904;28;20036;-67
2022/09/24 06:08:53;;;;;;;31.42;18.15;;;;;;;8.36;100.00;100570.03;5068990;28;20475;-67
2022/09/24 06:11:21;;;;;;;25.40;15.60;;;;;;;8.55;100.00;100570.38;5086305;28;20035;-67
2022/09/24 06:13:47;;;;;;;25.75;15.45;;;;;;;8.72;100.00;100575.28;5080466;28;20039;-67
2022/09/24 06:16:12;;;;;;;21.20;14.27;;;;;;;8.88;100.00;100576.69;5070780;28;20472;-67
2022/09/24 06:18:41;;;;;;;22.13;14.27;;;;;;;9.04;100.00;100571.84;5066814;28;20101;-67
2022/09/24 06:21:09;;;;;;;22.77;14.82;;;;;;;9.31;100.00;100579.53;5066536;28;20545;-68
2022/09/24 06:23:35;;;;;;;22.00;15.98;;;;;;;9.50;100.00;100571.75;5072523;28;20043;-68
2022/09/24 06:26:02;;;;;;;25.58;14.57;;;;;;;9.74;100.00;100571.63;5066736;28;20039;-67
2022/09/24 06:28:28;;;;;;;22.08;14.40;;;;;;;9.99;99.59;100576.72;5068782;28;20028;-67
2022/09/24 06:30:54;;;;;;;25.70;15.15;;;;;;;10.16;98.69;100560.97;5086874;28;20563;-68
2022/09/24 06:33:19;;;;;;;19.67;13.75;;;;;;;10.45;97.19;100569.31;5073507;28;20036;-67
2022/09/24 06:35:45;;;;;;;19.40;12.68;;;;;;;10.73;94.66;100566.84;5075133;28;20036;-67
2022/09/24 06:38:14;;;;;;;17.92;11.48;;;;;;;11.00;91.95;100564.50;5068185;28;20476;-64
2022/09/24 06:40:40;;;;;;;15.43;11.55;;;;;;;11.30;89.87;100567.25;5068977;28;20028;-64
2022/09/24 06:43:06;;;;;;;20.10;11.63;;;;;;;11.57;86.57;100566.63;5074413;28;20046;-65
2022/09/24 06:45:32;;;;;;;14.73;10.60;;;;;;;11.90;82.10;100570.91;5081290;28;20035;-64
2022/09/24 06:47:59;;;;;;;13.48;9.52;;;;;;;12.20;78.49;100576.22;5068386;28;20032;-64
2022/09/24 06:50:27;;;;;;;32.05;18.40;;;;;;;12.45;77.81;100575.69;5065861;28;20081;-67
2022/09/24 06:52:53;;;;;;;25.00;15.35;;;;;;;12.82;73.10;100579.38;5067973;28;20032;-67
2022/09/24 06:55:19;;;;;;;13.27;9.52;;;;;;;13.07;72.52;100570.72;5063982;28;20043;-67
2022/09/24 06:57:44;;;;;;;11.60;7.93;;;;;;;13.37;69.52;100575.91;5066261;28;20024;-67
2022/09/24 07:00:11;;;;;;;10.05;7.47;;;;;;;13.51;69.46;100556.56;5069823;28;20551;-67
2022/09/24 07:02:37;;;;;;;9.95;7.10;;;;;;;13.81;69.04;100574.31;5067930;28;20514;-67
2022/09/24 07:05:03;;;;;;;8.77;6.78;;;;;;;14.07;65.87;100573.50;5046205;28;20123;-68
2022/09/24 07:07:29;;;;;;;9.02;6.75;;;;;;;14.37;64.00;100575.00;5047926;28;20025;-67
2022/09/24 07:09:55;;;;;;;10.05;6.60;;;;;;;14.50;64.43;100580.88;5070319;28;20096;-68
2022/09/24 07:12:21;;;;;;;9.88;6.53;;;;;;;14.65;64.17;100582.91;5081269;28;20042;-67
2022/09/24 07:14:47;;;;;;;8.10;6.50;;;;;;;14.71;64.41;100574.22;5063296;28;20050;-68
2022/09/24 07:17:12;;;;;;;9.02;7.45;;;;;;;14.79;64.57;100585.06;5067056;28;20020;-68
2022/09/24 07:19:38;;;;;;;10.65;6.82;;;;;;;14.82;64.98;100573.97;5047104;28;20039;-68
2022/09/24 07:22:05;;;;;;;11.50;7.30;;;;;;;14.90;64.56;100575.88;5066002;28;20138;-68
2022/09/24 07:24:30;;;;;;;9.38;5.50;;;;;;;14.93;63.84;100575.56;5072866;28;20020;-68
2022/09/24 07:26:56;;;;;;;8.77;6.28;;;;;;;15.01;63.27;100586.44;5078439;28;20030;-68
2022/09/24 07:29:21;;;;;;;7.00;5.22;;;;;;;15.02;63.40;100588.97;5081476;28;20037;-68
2022/09/24 07:31:47;;;;;;;7.82;5.47;;;;;;;15.03;63.07;100590.66;5047229;28;20468;-67
2022/09/24 07:34:13;;;;;;;6.10;5.10;;;;;;;15.13;62.84;100604.94;5078288;28;20036;-64
2022/09/24 07:36:39;;;;;;;6.90;4.80;;;;;;;15.28;62.94;100597.97;5063265;28;20032;-65
2022/09/24 07:39:05;;;;;;;8.80;6.22;;;;;;;15.49;62.70;100609.31;5044981;28;21464;-65
2022/09/24 07:41:31;;;;;;;9.63;4.55;;;;;;;15.73;61.77;100609.44;5073061;28;20079;-65
2022/09/24 07:43:57;;;;;;;6.40;3.92;;;;;;;16.08;59.32;100605.72;5045593;28;20154;-64
2022/09/24 07:46:23;;;;;;;6.38;3.65;;;;;;;16.51;57.13;100602.84;5069951;28;20052;-64
2022/09/24 07:48:54;;;;;;;4.47;3.60;;;;;;;17.05;56.29;100610.38;5070639;28;20056;-68
2022/09/24 07:51:20;;;;;;;7.53;3.45;;;;;;;17.67;54.86;100595.28;5053180;28;20051;-68
2022/09/24 07:53:46;;;;;;;3.65;3.13;;;;;;;18.56;51.84;100602.06;5065326;28;20381;-68
2022/09/24 07:56:11;;;;;;;6.07;3.53;;;;;;;19.26;48.99;100600.91;5069466;28;20044;-65
2022/09/24 07:58:37;;;;;;;6.30;2.83;;;;;;;20.01;46.79;100597.03;5065168;28;20111;-65
2022/09/24 08:01:02;;;;;;;4.70;3.00;;;;;;;20.36;45.82;100589.13;5070801;28;20036;-65
2022/09/24 08:03:28;;;;;;;2.88;2.35;;;;;;;20.57;44.51;100600.09;5041634;28;20031;-68
2022/09/24 08:05:58;;;;;;;3.30;2.30;;;;;;;20.75;43.90;100595.03;5066752;28;20090;-67
2022/09/24 08:08:24;;;;;;;4.95;2.45;;;;;;;20.75;43.80;100589.56;5085069;28;20031;-67
2022/09/24 08:10:49;;;;;;;2.47;1.85;;;;;;;20.46;43.54;100571.44;5081077;28;20478;-64
2022/09/24 08:13:15;;;;;;;2.25;2.00;;;;;;;20.42;43.91;100596.53;5068948;28;20024;-64
2022/09/24 08:15:40;;;;;;;2.22;2.00;;;;;;;20.32;44.21;100602.31;5067782;28;20503;-64
2022/09/24 08:18:06;;;;;;;3.78;2.13;;;;;;;20.23;43.95;100602.56;5060443;28;20081;-64
2022/09/24 08:20:32;;;;;;;2.50;1.90;;;;;;;20.21;44.05;100588.31;5067763;28;21127;-67
2022/09/24 08:23:11;;;;;;;2.30;2.10;;;;;;;20.38;43.47;100600.69;5074116;28;20039;-67
2022/09/24 08:25:36;;;;;;;3.72;2.05;;;;;;;20.71;43.19;100596.47;5049734;28;20032;-68
2022/09/24 08:28:06;;;;;;;3.95;2.33;;;;;;;21.46;41.51;100586.72;5076424;28;20090;-68
2022/09/24 08:30:33;;;;;;;3.47;2.08;;;;;;;22.08;40.71;100584.84;5052655;28;20081;-67
2022/09/24 08:32:59;;;;;;;2.00;1.70;;;;;;;22.52;39.66;100577.09;5077605;28;20032;-67
2022/09/24 08:35:25;;;;;;;2.40;2.03;;;;;;;23.21;37.83;100580.38;5066444;28;20028;-67
2022/09/24 08:37:53;;;;;;;2.20;1.67;;;;;;;24.12;36.41;100566.63;5054822;28;20025;-67
2022/09/24 08:40:23;;;;;;;2.47;2.05;;;;;;;24.69;34.89;100563.84;5054845;28;20033;-67
2022/09/24 08:43:17;;;;;;;2.80;1.70;;;;;;;25.41;33.47;100553.19;5040721;28;20032;-68
2022/09/24 08:48:39;;;;;;;2.70;1.70;;;;;;;26.69;31.36;100543.97;5074477;28;20307;-67
2022/09/24 08:51:11;;;;;;;2.03;1.70;;;;;;;27.17;30.39;100534.50;5059866;28;20029;-68
2022/09/24 08:53:55;;;;;;;2.70;1.50;;;;;;;27.46;30.15;100541.03;5076121;28;20468;-67
2022/09/24 08:56:31;;;;;;;1.92;1.50;;;;;;;27.50;29.78;100529.28;5048225;28;20434;-67
2022/09/24 08:59:04;;;;;;;2.70;1.70;;;;;;;27.32;29.64;100531.31;5043907;28;20044;-67
2022/09/24 09:01:47;;;;;;;2.45;1.35;;;;;;;26.99;30.39;100529.09;5076362;28;20032;-67
2022/09/24 09:04:30;;;;;;;2.60;1.42;;;;;;;26.91;30.39;100528.56;5065145;28;20060;-66
2022/09/24 09:07:09;;;;;;;2.70;1.70;;;;;;;26.70;30.77;100523.59;5045478;28;20033;-67
2022/09/24 09:10:02;;;;;;;3.35;1.55;;;;;;;26.94;30.32;100533.59;5062502;28;20495;-67
2022/09/24 09:12:36;;;;;;;3.55;1.60;;;;;;;27.52;29.55;100526.28;5070350;28;20386;-68
2022/09/24 09:15:10;;;;;;;;;;;;;;;27.92;28.79;100530.03;5071567;28;20021;-65
2022/09/24 09:18:25;;;;;;;3.30;1.65;;;;;;;28.37;28.68;100519.94;5072168;28;19916;-64
2022/09/24 09:20:51;;;;;;;3.55;1.60;;;;;;;29.25;27.16;100534.06;5038034;28;20033;-64
2022/09/24 09:23:39;;;;;;;2.45;1.50;;;;;;;29.53;26.68;100517.41;5041015;28;20581;-64
2022/09/24 09:26:10;;;;;;;1.95;1.50;;;;;;;29.64;26.98;100519.25;5060287;28;20024;-65
2022/09/24 09:28:36;;;;;;;8.50;4.63;;;;;;;30.04;27.14;100519.81;5067393;28;20029;-66
2022/09/24 09:31:24;;;;;;;8.18;3.95;;;;;;;30.39;26.41;100520.28;5064854;28;21097;-68
2022/09/24 09:34:17;;;;;;;3.63;2.20;;;;;;;30.35;25.62;100513.63;5071263;28;20051;-68
2022/09/24 09:36:46;;;;;;;1.85;1.38;;;;;;;30.96;24.39;100520.66;5066569;28;20046;-66
2022/09/24 09:39:27;;;;;;;2.53;1.92;;;;;;;31.59;24.49;100515.13;5052730;28;20458;-67
2022/09/24 09:42:18;;;;;;;4.20;2.78;;;;;;;31.77;24.16;100518.31;5026954;28;20024;-68
2022/09/24 09:44:45;;;;;;;4.88;2.38;;;;;;;32.07;23.65;100506.53;5043753;28;20041;-68
2022/09/24 09:47:34;;;;;;;3.15;1.77;;;;;;;32.73;23.10;100507.63;5045522;28;20071;-68
2022/09/24 09:50:11;;;;;;;3.85;1.90;;;;;;;33.55;21.74;100513.81;5029397;28;20049;-67
2022/09/24 09:52:38;;;;;;;2.50;1.88;;;;;;;33.57;22.33;100531.09;5062049;28;20173;-66
2022/09/24 09:55:05;;;;;;;3.30;1.70;;;;;;;33.25;21.88;100509.09;5052329;28;20478;-66
2022/09/24 09:57:34;;;;;;;4.40;1.70;;;;;;;33.63;21.51;100502.97;5053631;28;20142;-67
2022/09/24 10:00:01;;;;;;;1.88;1.50;;;;;;;32.67;22.75;100501.22;5063643;28;20672;-67
2022/09/24 10:02:32;;;;;;;2.72;1.77;;;;;;;31.14;24.15;100518.34;5062101;28;20478;-67
2022/09/24 10:05:00;;;;;;;1.98;1.80;;;;;;;29.93;25.09;100518.00;5040266;28;20028;-67
2022/09/24 10:07:25;;;;;;;4.63;1.60;;;;;;;28.77;26.16;100522.69;5059367;28;20063;-67
2022/09/24 10:10:02;;;;;;;2.63;1.35;;;;;;;27.73;27.86;100523.75;5066343;28;20040;-67
2022/09/24 10:12:29;;;;;;;2.25;1.60;;;;;;;26.98;28.74;100516.38;5039402;28;20041;-66
2022/09/24 10:15:18;;;;;;;1.50;1.40;;;;;;;26.18;29.87;100520.47;5045085;28;20665;-66
2022/09/24 10:17:45;;;;;;;2.35;1.80;;;;;;;25.69;30.34;100526.09;5049145;28;20040;-67
2022/09/24 10:20:28;;;;;;;2.30;1.60;;;;;;;25.16;30.59;100518.53;5062349;28;20039;-67
2022/09/24 10:23:02;;;;;;;1.88;1.60;;;;;;;24.73;31.54;100528.59;5056560;28;20053;-67
2022/09/24 10:25:29;;;;;;;2.30;1.73;;;;;;;24.45;31.72;100520.72;5062984;28;20361;-66
2022/09/24 10:30:58;;;;;;;1.90;1.60;;;;;;;23.85;32.81;100511.03;5052081;28;20069;-67
2022/09/24 10:33:25;;;;;;;3.05;1.70;;;;;;;23.55;32.84;100509.84;5030953;28;20044;-67
2022/09/24 10:36:03;;;;;;;2.28;1.40;;;;;;;23.37;33.17;100512.38;5053853;28;20370;-67
2022/09/24 10:38:30;;;;;;;2.03;1.67;;;;;;;23.22;33.72;100511.75;5048780;28;20137;-64
2022/09/24 10:40:58;;;;;;;2.72;1.80;;;;;;;23.08;33.71;100501.84;5062273;28;20036;-65
2022/09/24 10:43:23;;;;;;;1.77;1.50;;;;;;;22.92;34.66;100496.78;5059097;28;20059;-64
2022/09/24 10:45:51;;;;;;;3.72;1.70;;;;;;;22.76;34.70;100502.66;5040385;28;20032;-64
2022/09/24 10:48:25;;;;;;;1.75;1.48;;;;;;;22.78;34.47;100500.56;5055803;28;20080;-65
2022/09/24 10:50:54;;;;;;;;;;;;;;;22.68;34.95;100499.28;5061135;28;20052;-64
2022/09/24 10:53:42;;;;;;;1.55;1.45;;;;;;;22.53;35.17;100490.44;5044805;28;19920;-64
2022/09/24 10:56:29;;;;;;;1.75;1.52;;;;;;;22.39;35.49;100486.81;5062221;28;20370;-63
2022/09/24 10:59:44;;;;;;;2.42;1.65;;;;;;;22.19;35.71;100491.38;5039117;28;20123;-64
2022/09/24 11:02:39;;;;;;;3.15;2.00;;;;;;;22.11;36.09;100484.19;5049139;28;20033;-64
2022/09/24 11:05:11;;;;;;;;;;;;;;;22.02;36.50;100490.03;5055551;28;20024;-64
2022/09/24 11:07:46;;;;;;;1.67;1.55;;;;;;;22.01;36.26;100486.47;5060767;28;19916;-64
2022/09/24 11:10:14;;;;;;;3.88;2.15;;;;;;;21.95;36.47;100486.44;5058755;28;20024;-63
2022/09/24 11:13:24;;;;;;;2.00;1.70;;;;;;;21.90;36.82;100484.31;5064639;28;20040;-64
2022/09/24 11:16:40;;;;;;;4.65;1.60;;;;;;;21.83;36.47;100474.44;5036533;28;20044;-63
2022/09/24 11:19:22;;;;;;;2.92;1.67;;;;;;;21.71;36.22;100468.66;4995868;28;20037;-64
2022/09/24 11:22:10;;;;;;;1.98;1.38;;;;;;;21.68;36.68;100476.41;5055288;28;20532;-65
2022/09/24 11:24:41;;;;;;;1.95;1.70;;;;;;;21.63;36.89;100490.66;5059764;28;20792;-64
2022/09/24 11:27:18;;;;;;;1.73;1.60;;;;;;;21.57;36.72;100479.72;5037382;28;20035;-64
2022/09/24 11:30:13;;;;;;;1.90;1.70;;;;;;;21.52;37.24;100482.19;5057472;28;20113;-64
2022/09/24 11:33:14;;;;;;;1.73;1.63;;;;;;;21.49;37.40;100480.72;5039522;28;20048;-65
2022/09/24 11:35:46;;;;;;;2.33;1.67;;;;;;;21.54;36.68;100466.47;5067191;28;20086;-64
2022/09/24 11:38:32;;;;;;;2.60;1.50;;;;;;;21.53;36.71;100465.63;5064561;28;20055;-64
2022/09/24 11:41:14;;;;;;;2.13;1.58;;;;;;;21.46;37.33;100445.63;5059973;28;20032;-64
2022/09/24 11:43:52;;;;;;;1.88;1.70;;;;;;;21.51;36.70;100453.22;5057022;28;20028;-65
2022/09/24 11:46:33;;;;;;;1.85;1.70;;;;;;;21.54;36.62;100450.09;5052147;28;20499;-68
2022/09/24 11:49:35;;;;;;;2.20;1.63;;;;;;;21.54;36.14;100453.66;5055013;28;20040;-65